• Join FlightAware (Why Join?)
  • Login
  • US Flag 
08:35AM EDT


 

Airport Tracker/Info


-or-


 

Live Flight TrackerFlight Track Log ✈ EJA749 ✈ 11-Nov-2013 ✈ KDPA - KPWK

Flight Track Log - Related Links

Times and Time Zones

All times are in EST time to prevent confusion due to time zone crossing. See the EJA749 flight status page for this flight to view local times or setup timezone preferences in your user account.

Time Position Orientation Groundspeed Altitude Reporting Facility
EST Latitude Longitude Course Direction KTS MPH feet Rate Location/Type
01:47PM 26.0747 -80.1414 85° East 238 274 700  Level Miami Center
01:48PM 26.0806 -80.0719 85° East 256 295 3,400 3,060 Climbing Miami Center
01:50PM 26.1397 -80.0458 22° Northeast 271 312 7,000 2,700 Climbing Miami Center
01:50PM 26.1783 -80.0933 312° West 289 333 7,900 1,620 Climbing Miami Center
01:51PM 26.1944 -80.1169 307° West 287 330 8,700 2,460 Climbing Miami Center
01:51PM 26.2378 -80.1436 331° Northwest 290 334 10,400 3,300 Climbing Miami Center
01:52PM 26.3075 -80.2033 322° Northwest 303 349 14,100 2,760 Climbing Miami Center
01:53PM 26.3875 -80.2658 325° Northwest 331 381 16,000 2,220 Climbing Miami Center
01:54PM 26.4714 -80.3356 323° Northwest 363 418 18,600 2,400 Climbing Miami Center
01:55PM 26.5594 -80.4056 325° Northwest 386 444 20,900 2,040 Climbing Miami Center
01:56PM 26.6625 -80.4575 336° Northwest 391 450 22,700 1,740 Climbing Miami Center
01:57PM 26.7700 -80.5072 338° Northwest 411 473 24,400 1,740 Climbing Miami Center
01:58PM 26.8814 -80.5619 336° Northwest 423 487 26,200 1,800 Climbing Miami Center
01:59PM 26.9908 -80.6119 338° Northwest 423 487 28,000 1,800 Climbing Miami Center
02:00PM 27.1042 -80.6622 338° Northwest 429 494 29,800 1,740 Climbing Miami Center
02:01PM 27.2136 -80.7150 337° Northwest 429 494 31,500 1,440 Climbing Miami Center
02:02PM 27.3250 -80.7656 338° Northwest 429 494 32,700 1,200 Climbing Miami Center
02:03PM 27.4344 -80.8111 340° North 429 494 33,900 1,140 Climbing Miami Center
02:04PM 27.5497 -80.8644 338° Northwest 429 494 35,000 540 Climbing Miami Center
02:05PM 27.6631 -80.9175 337° Northwest 434 499 35,000  Level Miami Center
02:06PM 27.7764 -80.9708 337° Northwest 439 505 35,000  Level Miami Center
02:07PM 27.8936 -81.0269 337° Northwest 445 512 35,000  Level Miami Center
02:08PM 28.0156 -81.0761 340° North 451 519 35,000  Level Miami Center
02:09PM 28.1247 -81.1178 341° North 451 519 35,000  Level Miami Center
02:10PM 28.2547 -81.1650 342° North 456 525 35,000  Level Miami Center
02:11PM 28.3789 -81.2075 343° North 456 525 35,000  Level Miami Center
02:12PM 28.5003 -81.2547 341° North 456 525 35,000  Level Miami Center
02:13PM 28.6222 -81.2975 343° North 462 532 35,000  Level Miami Center
02:14PM 28.7253 -81.3394 340° North 449 517 35,000  Level Miami Center
02:15PM 28.8003 -81.3667 342° North 447 514 35,000  Level Jacksonville Center
02:16PM 28.9219 -81.4100 343° North 447 514 35,000  Level Jacksonville Center
02:17PM 29.0433 -81.4533 343° North 447 514 35,000  Level Jacksonville Center
02:18PM 29.1628 -81.4967 342° North 447 514 35,000  Level Jacksonville Center
02:19PM 29.2678 -81.5428 339° North 440 506 35,000 300 Level Jacksonville Center
02:20PM 29.3911 -81.5744 347° North 446 513 35,600 840 Climbing Jacksonville Center
02:21PM 29.5167 -81.5919 353° North 446 513 36,700 660 Climbing Jacksonville Center
02:22PM 29.6400 -81.6117 352° North 452 520 37,000 120 Climbing Jacksonville Center
02:23PM 29.7656 -81.6292 353° North 452 520 37,000  Level Jacksonville Center
02:24PM 29.8931 -81.6492 352° North 447 514 37,000  Level Jacksonville Center
02:25PM 30.0183 -81.6667 353° North 447 514 37,000  Level Jacksonville Center
02:26PM 30.1439 -81.6844 353° North 447 514 37,000  Level Jacksonville Center
02:27PM 30.2694 -81.7019 353° North 447 514 37,000  Level Jacksonville Center
02:28PM 30.4114 -81.7219 353° North 463 533 37,000  Level Jacksonville Center
02:29PM 30.5369 -81.7422 352° North 458 527 37,000  Level Jacksonville Center
02:30PM 30.6519 -81.7625 351° North 458 527 37,000  Level Jacksonville Center
02:31PM 30.7942 -81.7850 352° North 463 533 37,000  Level Jacksonville Center
02:32PM 30.9194 -81.8053 352° North 463 533 37,000  Level Jacksonville Center
02:33PM 31.0472 -81.8233 353° North 463 533 37,000  Level Jacksonville Center
02:34PM 31.1747 -81.8461 351° North 462 532 37,000  Level Jacksonville Center
02:35PM 31.2981 -81.8617 354° North 450 518 37,000  Level Jacksonville Center
02:37PM 31.6008 -81.9078 353° North 450 518 37,000  Level Atlanta Center
02:38PM 31.7264 -81.9269 353° North 450 518 37,000  Level Atlanta Center
02:39PM 31.8500 -81.9461 352° North 445 512 37,000  Level Atlanta Center
02:40PM 31.9733 -81.9650 353° North 450 518 37,000  Level Atlanta Center
02:41PM 32.0989 -81.9819 353° North 443 510 37,000  Level Atlanta Center
02:42PM 32.2181 -81.9939 355° North 443 510 37,000  Level Atlanta Center
02:43PM 32.3414 -82.0058 355° North 443 510 37,000  Level Atlanta Center
02:44PM 32.4647 -82.0225 353° North 443 510 37,000  Level Atlanta Center
02:45PM 32.5781 -82.0619 344° North 436 502 37,000  Level Atlanta Center
02:46PM 32.6792 -82.1214 334° Northwest 415 478 37,000  Level Atlanta Center
02:47PM 32.7783 -82.1786 334° Northwest 420 483 37,000  Level Atlanta Center
02:48PM 32.8814 -82.2356 335° Northwest 420 483 37,000  Level Atlanta Center
02:49PM 32.9844 -82.2956 334° Northwest 420 483 37,000  Level Atlanta Center
02:50PM 33.0856 -82.3528 335° Northwest 407 468 37,000  Level Atlanta Center
02:51PM 33.1928 -82.4128 335° Northwest 407 468 37,000  Level Atlanta Center
02:52PM 33.2936 -82.4706 334° Northwest 408 470 37,000  Level Atlanta Center
02:53PM 33.4114 -82.5356 335° Northwest 413 475 37,000  Level Atlanta Center
02:54PM 33.5164 -82.5961 334° Northwest 413 475 37,000  Level Atlanta Center
02:55PM 33.6153 -82.6544 334° Northwest 408 470 37,000  Level Atlanta Center
02:56PM 33.7097 -82.7103 334° Northwest 413 475 37,000  Level Atlanta Center
02:57PM 33.8147 -82.7661 336° Northwest 413 475 37,000  Level Atlanta Center
02:58PM 33.9197 -82.8272 334° Northwest 413 475 37,000  Level Atlanta Center
02:59PM 34.0225 -82.8883 334° Northwest 404 465 37,000  Level Atlanta Center
03:00PM 34.1233 -82.9447 335° Northwest 409 471 37,000  Level Atlanta Center
03:01PM 34.2281 -83.0061 334° Northwest 409 471 37,000  Level Atlanta Center
03:02PM 34.3308 -83.0678 334° Northwest 404 465 37,000  Level Atlanta Center
03:03PM 34.4378 -83.1294 335° Northwest 410 472 37,000  Level Atlanta Center
03:04PM 34.5447 -83.1914 334° Northwest 410 472 37,000  Level Atlanta Center
03:05PM 34.6558 -83.2586 334° Northwest 405 466 37,000  Level Atlanta Center
03:06PM 34.7500 -83.3158 333° Northwest 416 479 37,000  Level Atlanta Center
03:07PM 34.8589 -83.3806 334° Northwest 416 479 37,000  Level Atlanta Center
03:08PM 34.9636 -83.4406 335° Northwest 416 479 37,000  Level Atlanta Center
03:09PM 35.0683 -83.5058 333° Northwest 416 479 37,000  Level Atlanta Center
03:10PM 35.1728 -83.5686 334° Northwest 416 479 37,000  Level Atlanta Center
03:11PM 35.2753 -83.6317 333° Northwest 411 473 37,000  Level Atlanta Center
03:12PM 35.3797 -83.6922 335° Northwest 411 473 37,000  Level Atlanta Center
03:13PM 35.4842 -83.7556 334° Northwest 411 473 37,000  Level Atlanta Center
03:14PM 35.5992 -83.8267 333° Northwest 411 473 37,000 420 Level Atlanta Center
03:15PM 35.7036 -83.8903 334° Northwest 417 480 37,900 480 Climbing Atlanta Center
03:16PM 35.8058 -83.9517 334° Northwest 411 473 38,000  Climbing Atlanta Center
03:17PM 35.9103 -84.0131 335° Northwest 411 473 38,000  Level Atlanta Center
03:18PM 36.0144 -84.0772 334° Northwest 411 473 38,000  Level Atlanta Center
03:19PM 36.1167 -84.1442 332° Northwest 411 473 38,000  Level Atlanta Center
03:20PM 36.2253 -84.2078 335° Northwest 422 486 38,000  Level Indianapolis Center
03:21PM 36.3286 -84.2722 333° Northwest 418 481 38,000  Level Indianapolis Center
03:22PM 36.4403 -84.3672 326° Northwest 408 470 38,000  Level Indianapolis Center
03:23PM 36.5297 -84.4431 326° Northwest 409 471 38,000  Level Indianapolis Center
03:24PM 36.6267 -84.5264 325° Northwest 406 467 38,000 120 Level Indianapolis Center
03:25PM 36.7292 -84.5936 332° Northwest 415 478 38,300 480 Climbing Indianapolis Center
03:26PM 36.8297 -84.6597 332° Northwest 411 473 39,000 300 Climbing Indianapolis Center
03:27PM 36.9508 -84.7442 331° Northwest 417 480 39,000  Level Indianapolis Center
03:28PM 37.0522 -84.8042 335° Northwest 422 486 39,000  Level Indianapolis Center
03:30PM 37.1583 -84.8708 333° Northwest 425 489 39,000  Level Indianapolis Center
03:31PM 37.2669 -84.9369 334° Northwest 431 496 39,000  Level Indianapolis Center
03:32PM 37.3742 -85.0028 334° Northwest 429 494 39,000  Level Indianapolis Center
03:33PM 37.4997 -85.0797 334° Northwest 429 494 39,000  Level Indianapolis Center
03:34PM 37.6072 -85.1483 333° Northwest 431 496 39,000 -180 Level Indianapolis Center
03:35PM 37.6942 -85.2436 319° Northwest 417 480 38,700 -960 Descending Indianapolis Center
03:36PM 37.7819 -85.3381 320° Northwest 415 478 37,100 -1,500 Descending Indianapolis Center
03:37PM 37.8803 -85.4181 327° Northwest 426 490 35,600 -1,260 Descending Indianapolis Center
03:38PM 37.9881 -85.4811 335° Northwest 428 493 34,600 -1,260 Descending Indianapolis Center
03:39PM 38.0964 -85.5464 335° Northwest 431 496 33,000 -1,260 Descending Indianapolis Center
03:40PM 38.2275 -85.6253 335° Northwest 434 499 32,000 -540 Descending Indianapolis Center
03:41PM 38.3411 -85.6922 335° Northwest 447 514 32,000  Level Indianapolis Center
03:42PM 38.4558 -85.7608 335° Northwest 454 522 32,000  Level Indianapolis Center
03:43PM 38.5697 -85.8297 335° Northwest 454 522 32,000 -180 Level Indianapolis Center
03:44PM 38.6833 -85.8989 335° Northwest 452 520 31,700 -960 Descending Indianapolis Center
03:45PM 38.7978 -85.9672 335° Northwest 454 522 30,100 -840 Descending Indianapolis Center
03:46PM 38.9328 -86.0506 334° Northwest 449 517 30,000 -60 Descending Indianapolis Center
03:47PM 39.0467 -86.1203 335° Northwest 453 521 30,000  Level Indianapolis Center
03:48PM 39.1631 -86.1919 334° Northwest 460 529 30,000 -540 Level Indianapolis Center
03:49PM 39.2775 -86.2614 335° Northwest 456 525 28,900 -1,320 Descending Indianapolis Center
03:50PM 39.3878 -86.3294 335° Northwest 442 509 27,300 -1,440 Descending Indianapolis Center
03:51PM 39.4997 -86.4003 334° Northwest 447 514 26,000 -660 Descending Indianapolis Center
03:52PM 39.6117 -86.4697 334° Northwest 446 513 26,000  Level Indianapolis Center
03:53PM 39.7489 -86.5564 334° Northwest 452 520 26,000  Level Indianapolis Center
03:54PM 39.8661 -86.6289 335° Northwest 461 531 26,000  Level Indianapolis Center
03:55PM 39.9817 -86.7017 334° Northwest 461 531 26,000  Level Indianapolis Center
03:56PM 40.0983 -86.7750 334° Northwest 464 534 26,000 -600 Level Indianapolis Center
03:57PM 40.1861 -86.8322 334° Northwest 458 527 24,900 -1,080 Descending Chicago Center
03:58PM 40.3217 -86.9181 334° Northwest 454 522 24,000 -900 Descending Chicago Center
03:59PM 40.4447 -86.9700 342° North 471 542 23,100 -1,260 Descending Chicago Center
04:00PM 40.5714 -87.0033 349° North 467 537 21,500 -1,860 Descending Chicago Center
04:01PM 40.6861 -87.0347 348° North 435 501 19,300 -2,280 Descending Chicago Center
04:02PM 40.7831 -87.0622 348° North 369 425 16,800 -2,580 Descending Chicago Center
04:03PM 40.8881 -87.0919 348° North 332 382 14,000 -2,520 Descending Chicago Center
04:04PM 40.9797 -87.1169 348° North 333 383 11,700 -1,920 Descending Chicago Center
04:05PM 41.0700 -87.1461 346° North 337 388 10,100 -780 Descending Chicago Center
04:07PM 41.1081 -87.2364 299° West 296 341 10,100  Level Chicago Center
04:08PM 41.1444 -87.3228 299° West 271 312 10,100 -600 Level Chicago Center
04:09PM 41.1803 -87.4114 298° West 273 314 8,900 -1,440 Descending Chicago Center
04:10PM 41.2153 -87.4975 298° West 236 272 7,200 -1,320 Descending Chicago Center
04:11PM 41.2458 -87.5744 298° West 232 267 6,200 -1,020 Descending Chicago Center
04:12PM 41.2792 -87.6550 299° West 240 276 5,200 -1,020 Descending Chicago Center
04:13PM 41.3128 -87.7389 298° West 250 288 4,200 -600 Descending Chicago Center
04:14PM 41.3453 -87.8197 298° West 251 289 4,000 -120 Descending Chicago Center
04:15PM 41.3831 -87.9133 298° West 246 283 4,000  Level Chicago Center
04:16PM 41.4222 -87.9789 309° West 236 272 4,000  Level Chicago Center
04:17PM 41.4669 -88.0375 316° Northwest 234 269 4,000  Level Chicago Center
04:18PM 41.5133 -88.0942 318° Northwest 233 268 4,000  Level Chicago Center
04:19PM 41.5706 -88.1581 320° Northwest 227 261 4,000  Level Chicago Center
04:20PM 41.6183 -88.2111 320° Northwest 227 261 4,000  Level Chicago Center
04:21PM 41.6578 -88.2544 321° Northwest 205 236 4,000  Level Chicago Center
04:22PM 41.6939 -88.2953 320° Northwest 187 215 4,000  Level Chicago Center
04:23PM 41.7336 -88.3067 348° North 169 194 4,000 -480 Level Chicago Center
04:24PM 41.7833 -88.2908 13° North 160 184 3,100 -780 Descending Chicago Center
04:25PM 41.8194 -88.2786 14° North 146 168 2,400 -780 Descending Chicago Center
04:26PM 41.8536 -88.2675 14° North 136 157 1,600 -720 Descending Chicago Center
04:27PM 41.8917 -88.2556 13° North 132 152 1,000 -600 Descending Chicago Center
04:30PM 42.0593 -87.9893 50° Northeast  Level Estimated
04:37PM 42.1143 -87.9015 50° Northeast  Level Estimated
04:38PM 42.1143 -87.9015 143° Southeast  Level Estimated
04:39PM 42.1143 -87.9015 143° Southeast  Level Estimated
04:40PM 42.1143 -87.9015 143° Southeast  Level Estimated
04:41PM 42.1143 -87.9015 143° Southeast  Level Estimated
04:42PM 42.1143 -87.9015 143° Southeast  Level Estimated
04:43PM 42.1143 -87.9015 143° Southeast  Level Estimated
04:44PM 42.1143 -87.9015 143° Southeast  Level Estimated
04:45PM 42.1143 -87.9015 143° Southeast  Level Estimated
04:46PM 42.1143 -87.9015 143° Southeast  Level Estimated
04:47PM 42.1143 -87.9015 143° Southeast  Level Estimated
04:48PM 42.1143 -87.9015 143° Southeast  Level Estimated